createdAt,value
2022-08-02T00:00:36.802Z,2.20
2022-08-02T00:03:05.184Z,1.90
2022-08-02T00:05:33.735Z,2.00
2022-08-02T00:08:02.166Z,2.10
2022-08-02T00:10:32.468Z,2.17
2022-08-02T00:13:00.709Z,2.00
2022-08-02T00:15:28.869Z,2.07
2022-08-02T00:17:56.950Z,2.83
2022-08-02T00:20:25.078Z,2.23
2022-08-02T00:22:53.139Z,2.10
2022-08-02T00:25:21.639Z,2.20
2022-08-02T00:27:51.539Z,2.30
2022-08-02T00:30:19.663Z,2.30
2022-08-02T00:32:47.851Z,1.90
2022-08-02T00:35:16.230Z,2.20
2022-08-02T00:37:44.581Z,2.20
2022-08-02T00:40:13.648Z,2.57
2022-08-02T00:42:42.350Z,2.20
2022-08-02T00:45:12.212Z,1.90
2022-08-02T00:47:40.918Z,2.10
2022-08-02T00:50:09.744Z,1.80
2022-08-02T00:52:39.942Z,2.00
2022-08-02T00:55:08.816Z,2.10
2022-08-02T00:57:37.289Z,2.10
2022-08-02T01:00:07.816Z,1.90
2022-08-02T01:02:37.376Z,2.10
2022-08-02T01:05:06.240Z,2.67
2022-08-02T01:07:34.580Z,2.17
2022-08-02T01:10:03.187Z,2.10
2022-08-02T01:12:31.381Z,2.13
2022-08-02T01:15:04.866Z,2.40
2022-08-02T01:17:39.982Z,2.10
2022-08-02T01:20:18.000Z,2.23
2022-08-02T01:23:07.045Z,2.30
2022-08-02T01:26:04.478Z,2.10
2022-08-02T01:28:39.297Z,2.10
2022-08-02T01:31:20.403Z,2.23
2022-08-02T01:33:56.456Z,2.30
2022-08-02T01:36:29.204Z,2.30
2022-08-02T01:38:59.160Z,2.10
2022-08-02T01:41:29.772Z,2.40
2022-08-02T01:44:02.192Z,2.30
2022-08-02T01:46:34.323Z,2.20
2022-08-02T01:49:07.390Z,2.30
2022-08-02T01:51:56.613Z,2.10
2022-08-02T01:54:29.152Z,2.33
2022-08-02T01:56:58.745Z,2.40
2022-08-02T01:59:32.305Z,2.67
2022-08-02T02:02:01.626Z,2.40
2022-08-02T02:04:32.361Z,2.50
2022-08-02T02:07:01.164Z,2.60
2022-08-02T02:09:32.050Z,2.60
2022-08-02T02:12:05.157Z,2.50
2022-08-02T02:14:51.788Z,2.30
2022-08-02T02:18:11.242Z,2.43
2022-08-02T02:20:14.767Z,2.20
2022-08-02T02:22:43.817Z,2.50
2022-08-02T02:25:15.104Z,2.57
2022-08-02T02:27:49.506Z,2.57
2022-08-02T02:30:19.838Z,2.47
2022-08-02T02:32:49.863Z,2.50
2022-08-02T02:35:20.871Z,2.33
2022-08-02T02:37:52.813Z,2.90
2022-08-02T02:40:23.398Z,2.70
2022-08-02T02:42:53.645Z,2.73
2022-08-02T02:45:24.264Z,2.50
2022-08-02T02:47:56.694Z,2.47
2022-08-02T02:50:27.035Z,2.60
2022-08-02T02:52:55.671Z,2.60
2022-08-02T02:55:25.720Z,2.63
2022-08-02T02:57:55.016Z,2.37
2022-08-02T03:00:39.699Z,2.90
2022-08-02T03:03:09.301Z,2.20
2022-08-02T03:05:37.684Z,2.60
2022-08-02T03:08:06.471Z,2.60
2022-08-02T03:10:35.686Z,2.50
2022-08-02T03:13:05.621Z,3.43
2022-08-02T03:15:36.286Z,2.73
2022-08-02T03:18:04.502Z,2.60
2022-08-02T03:20:32.912Z,3.00
2022-08-02T03:23:01.015Z,2.80
2022-08-02T03:25:29.133Z,3.00
2022-08-02T03:27:57.240Z,2.73
2022-08-02T03:30:27.880Z,2.83
2022-08-02T03:32:57.571Z,3.00
2022-08-02T03:35:25.895Z,2.83
2022-08-02T03:37:57.321Z,3.13
2022-08-02T03:40:28.871Z,2.80
2022-08-02T03:43:01.310Z,2.67
2022-08-02T03:45:31.128Z,3.00
2022-08-02T03:48:01.336Z,2.70
2022-08-02T03:50:34.559Z,3.10
2022-08-02T03:53:04.619Z,3.07
2022-08-02T03:55:33.004Z,3.10
2022-08-02T03:58:01.341Z,2.97
2022-08-02T04:00:32.451Z,2.77
2022-08-02T04:03:02.244Z,2.97
2022-08-02T04:05:30.429Z,2.90
2022-08-02T04:08:34.365Z,3.10
2022-08-02T04:11:04.690Z,3.10
2022-08-02T04:13:37.124Z,2.70
2022-08-02T04:16:12.113Z,3.20
2022-08-02T04:18:47.646Z,3.30
2022-08-02T04:21:20.818Z,2.80
2022-08-02T04:23:51.990Z,4.20
2022-08-02T04:26:26.721Z,3.20
2022-08-02T04:28:58.102Z,3.00
2022-08-02T04:31:27.224Z,2.70
2022-08-02T04:33:57.279Z,3.37
2022-08-02T04:36:31.633Z,3.10
2022-08-02T04:39:00.527Z,3.10
2022-08-02T04:41:40.907Z,3.60
2022-08-02T04:44:12.899Z,3.37
2022-08-02T04:46:42.490Z,3.53
2022-08-02T04:49:14.645Z,2.93
2022-08-02T04:51:44.698Z,3.00
2022-08-02T04:54:13.806Z,3.30
2022-08-02T04:56:42.402Z,3.20
2022-08-02T04:59:10.698Z,3.10
2022-08-02T05:01:39.525Z,3.17
2022-08-02T05:04:07.699Z,3.63
2022-08-02T05:06:37.307Z,3.50
2022-08-02T05:09:05.356Z,3.47
2022-08-02T05:11:36.332Z,3.17
2022-08-02T05:14:05.780Z,3.37
2022-08-02T05:16:34.062Z,3.50
2022-08-02T05:19:02.781Z,4.00
2022-08-02T05:21:31.972Z,3.70
2022-08-02T05:24:01.992Z,3.40
2022-08-02T05:26:30.287Z,3.40
2022-08-02T05:28:58.429Z,3.37
2022-08-02T05:31:26.504Z,3.80
2022-08-02T05:33:54.812Z,4.00
2022-08-02T05:36:23.023Z,3.47
2022-08-02T05:38:53.001Z,3.83
2022-08-02T05:41:29.678Z,4.10
2022-08-02T05:43:58.494Z,3.67
2022-08-02T05:46:26.928Z,4.07
2022-08-02T05:48:55.335Z,4.07
2022-08-02T05:51:28.006Z,4.13
2022-08-02T05:54:08.259Z,3.40
2022-08-02T05:56:48.162Z,3.50
2022-08-02T05:59:27.262Z,3.87
2022-08-02T06:01:59.232Z,3.70
2022-08-02T06:04:35.565Z,3.60
2022-08-02T06:07:06.914Z,3.67
2022-08-02T06:09:36.364Z,3.23
2022-08-02T06:12:10.205Z,3.60
2022-08-02T06:14:43.418Z,3.80
2022-08-02T06:17:12.667Z,3.80
2022-08-02T06:19:51.521Z,3.67
2022-08-02T06:22:33.375Z,3.60
2022-08-02T06:25:48.017Z,3.60
2022-08-02T06:27:57.397Z,3.60
2022-08-02T06:30:25.650Z,3.60
2022-08-02T06:32:54.282Z,4.07
2022-08-02T06:35:22.602Z,4.40
2022-08-02T06:37:58.664Z,3.20
2022-08-02T06:40:31.240Z,3.40
2022-08-02T06:43:11.307Z,3.60
2022-08-02T06:45:40.458Z,3.63
2022-08-02T06:48:09.388Z,3.20
2022-08-02T06:50:39.138Z,3.70
2022-08-02T06:53:08.071Z,3.57
2022-08-02T06:55:43.616Z,3.10
2022-08-02T06:58:14.432Z,3.43
2022-08-02T07:00:43.840Z,2.97
2022-08-02T07:03:13.040Z,3.00
2022-08-02T07:05:43.826Z,2.57
2022-08-02T07:08:12.163Z,2.47
2022-08-02T07:10:40.366Z,3.00
2022-08-02T07:13:08.616Z,2.63
2022-08-02T07:15:38.520Z,2.70
2022-08-02T07:18:07.777Z,2.45
2022-08-02T07:20:36.535Z,2.53
2022-08-02T07:23:05.847Z,2.55
2022-08-02T07:26:01.936Z,2.60
2022-08-02T07:28:24.796Z,2.58
2022-08-02T07:30:54.518Z,3.40
2022-08-02T07:33:37.781Z,2.95
2022-08-02T07:36:09.530Z,2.70
2022-08-02T07:38:38.357Z,2.53
2022-08-02T07:41:06.779Z,2.35
2022-08-02T07:43:34.947Z,2.63
2022-08-02T07:46:04.438Z,2.88
2022-08-02T07:48:32.663Z,2.72
2022-08-02T07:51:01.013Z,2.65
2022-08-02T07:53:49.882Z,2.42
2022-08-02T07:56:17.274Z,2.22
2022-08-02T07:58:45.426Z,2.20
2022-08-02T08:01:15.047Z,2.33
2022-08-02T08:03:43.316Z,2.78
2022-08-02T08:06:11.739Z,2.60
2022-08-02T08:08:40.184Z,2.38
2022-08-02T08:11:08.240Z,2.38
2022-08-02T08:13:36.605Z,2.17
2022-08-02T08:16:05.817Z,1.77
2022-08-02T08:18:35.661Z,2.25
2022-08-02T08:21:04.401Z,2.00
2022-08-02T08:23:32.624Z,1.88
2022-08-02T08:26:01.273Z,2.05
2022-08-02T08:28:32.575Z,2.17
2022-08-02T08:31:01.599Z,2.40
2022-08-02T08:33:29.978Z,1.48
2022-08-02T08:35:59.908Z,1.33
2022-08-02T08:38:30.777Z,1.50
2022-08-02T08:40:59.433Z,1.67
2022-08-02T08:43:27.576Z,1.45
2022-08-02T08:45:56.561Z,1.40
2022-08-02T08:48:31.556Z,1.20
2022-08-02T08:51:05.891Z,1.15
2022-08-02T08:53:41.168Z,1.40
2022-08-02T08:56:15.451Z,1.40
2022-08-02T08:58:45.313Z,1.42
2022-08-02T09:01:15.201Z,1.50
2022-08-02T09:03:43.930Z,1.33
2022-08-02T09:06:13.592Z,1.35
2022-08-02T09:08:41.994Z,1.20
2022-08-02T09:11:17.734Z,1.60
2022-08-02T09:13:57.478Z,1.27
2022-08-02T09:16:30.680Z,1.30
2022-08-02T09:18:58.981Z,1.70
2022-08-02T09:21:38.593Z,1.52
2022-08-02T09:24:20.032Z,1.67
2022-08-02T09:26:49.274Z,1.65
2022-08-02T09:29:18.453Z,1.40
2022-08-02T09:31:50.224Z,1.88
2022-08-02T09:34:20.181Z,1.70
2022-08-02T09:36:54.575Z,1.50
2022-08-02T09:39:24.035Z,1.85
2022-08-02T09:41:52.307Z,3.80
2022-08-02T09:44:20.694Z,2.05
2022-08-02T09:46:48.945Z,1.75
2022-08-02T09:49:19.767Z,2.03
2022-08-02T09:51:54.257Z,1.70
2022-08-02T09:54:27.857Z,1.75
2022-08-02T09:56:57.780Z,1.50
2022-08-02T09:59:27.274Z,1.65
2022-08-02T10:02:02.444Z,1.48
2022-08-02T10:04:53.267Z,1.88
2022-08-02T10:07:24.127Z,1.63
2022-08-02T10:09:52.686Z,1.85
2022-08-02T10:12:22.495Z,1.50
2022-08-02T10:14:52.420Z,1.58
2022-08-02T10:17:21.258Z,1.77
2022-08-02T10:20:02.938Z,2.45
2022-08-02T10:22:35.140Z,1.75
2022-08-02T10:25:05.306Z,1.45
2022-08-02T10:27:55.102Z,1.70
2022-08-02T10:30:24.394Z,1.50
2022-08-02T10:32:54.282Z,1.83
2022-08-02T10:35:26.718Z,1.77
2022-08-02T10:38:01.401Z,1.60
2022-08-02T10:40:45.411Z,1.58
2022-08-02T10:43:14.326Z,2.10
2022-08-02T10:45:42.928Z,1.85
2022-08-02T10:48:14.780Z,1.77
2022-08-02T10:50:56.212Z,1.70
2022-08-02T10:53:27.761Z,1.75
2022-08-02T10:55:57.504Z,1.70
2022-08-02T10:58:29.444Z,1.65
2022-08-02T11:00:59.274Z,1.67
2022-08-02T11:03:41.683Z,1.83
2022-08-02T11:06:25.112Z,1.42
2022-08-02T11:09:31.815Z,2.00
2022-08-02T11:12:06.244Z,1.70
2022-08-02T11:14:36.584Z,1.35
2022-08-02T11:17:13.976Z,1.48
2022-08-02T11:20:18.276Z,1.52
2022-08-02T11:22:47.786Z,1.52
2022-08-02T11:26:02.687Z,1.58
2022-08-02T11:28:26.181Z,1.40
2022-08-02T11:30:59.545Z,1.70
2022-08-02T11:33:37.038Z,1.40
2022-08-02T11:36:08.446Z,1.50
2022-08-02T11:38:36.906Z,1.60
2022-08-02T11:41:09.875Z,1.60
2022-08-02T11:43:41.123Z,1.50
2022-08-02T11:46:15.455Z,1.50
2022-08-02T11:48:45.011Z,1.40
2022-08-02T11:51:14.745Z,1.50
2022-08-02T11:53:49.152Z,1.50
2022-08-02T11:56:24.820Z,1.60
2022-08-02T11:59:05.113Z,1.30
2022-08-02T12:01:36.858Z,1.52
2022-08-02T12:04:18.368Z,1.50
2022-08-02T12:06:54.843Z,1.52
2022-08-02T12:09:25.013Z,1.30
2022-08-02T12:11:57.358Z,1.30
2022-08-02T12:14:27.397Z,1.40
2022-08-02T12:17:13.492Z,1.70
2022-08-02T12:19:42.995Z,1.30
2022-08-02T12:22:14.987Z,1.45
2022-08-02T12:24:45.856Z,1.50
2022-08-02T12:27:31.517Z,1.67
2022-08-02T12:30:03.083Z,1.50
2022-08-02T12:32:31.372Z,1.85
2022-08-02T12:35:08.954Z,1.40
2022-08-02T12:37:37.922Z,1.38
2022-08-02T12:40:31.495Z,1.40
2022-08-02T12:43:03.127Z,1.25
2022-08-02T12:45:40.877Z,1.23
2022-08-02T12:48:11.187Z,1.48
2022-08-02T12:50:39.978Z,1.23
2022-08-02T12:53:10.902Z,1.40
2022-08-02T12:56:00.953Z,1.30
2022-08-02T12:58:47.653Z,1.30
2022-08-02T13:01:22.925Z,1.38
2022-08-02T13:04:09.753Z,1.25
2022-08-02T13:06:43.950Z,1.20
2022-08-02T13:09:15.293Z,1.70
2022-08-02T13:11:44.159Z,1.20
2022-08-02T13:14:15.433Z,1.20
2022-08-02T13:16:45.280Z,1.27
2022-08-02T13:19:15.479Z,1.40
2022-08-02T13:22:02.830Z,1.10
2022-08-02T13:24:40.525Z,1.60
2022-08-02T13:27:22.709Z,1.10
2022-08-02T13:29:53.514Z,1.40
2022-08-02T13:32:22.615Z,1.20
2022-08-02T13:34:52.526Z,1.20
2022-08-02T13:37:20.871Z,1.15
2022-08-02T13:40:11.700Z,1.10
2022-08-02T13:42:37.771Z,1.30
2022-08-02T13:45:12.597Z,1.30
2022-08-02T13:47:57.531Z,1.30
2022-08-02T13:50:32.198Z,1.27
2022-08-02T13:53:00.565Z,1.30
2022-08-02T13:55:29.426Z,1.30
2022-08-02T13:57:57.915Z,1.25
2022-08-02T14:00:35.028Z,1.27
2022-08-02T14:03:05.975Z,1.15
2022-08-02T14:05:39.598Z,1.20
2022-08-02T14:08:18.239Z,1.20
2022-08-02T14:10:47.519Z,1.35
2022-08-02T14:13:15.801Z,1.23
2022-08-02T14:15:45.770Z,1.30
2022-08-02T14:18:15.579Z,1.30
2022-08-02T14:20:45.392Z,1.30
2022-08-02T14:23:13.869Z,1.20
2022-08-02T14:25:42.160Z,1.20
2022-08-02T14:28:10.546Z,1.30
2022-08-02T14:30:39.954Z,1.20
2022-08-02T14:33:09.965Z,1.30
2022-08-02T14:35:38.262Z,1.08
2022-08-02T14:38:06.594Z,1.25
2022-08-02T14:40:35.282Z,1.08
2022-08-02T14:43:05.566Z,1.17
2022-08-02T14:45:40.924Z,1.15
2022-08-02T14:48:12.756Z,1.20
2022-08-02T14:50:41.294Z,1.25
2022-08-02T14:53:12.202Z,1.30
2022-08-02T14:55:42.281Z,1.20
2022-08-02T14:58:10.621Z,1.30
2022-08-02T15:00:41.163Z,1.23
2022-08-02T15:03:14.046Z,1.30
2022-08-02T15:05:42.122Z,1.23
2022-08-02T15:08:10.606Z,1.80
2022-08-02T15:10:39.047Z,1.15
2022-08-02T15:13:07.670Z,1.25
2022-08-02T15:15:42.220Z,1.23
2022-08-02T15:18:14.642Z,1.40
2022-08-02T15:20:46.193Z,1.30
2022-08-02T15:23:37.343Z,1.30
2022-08-02T15:26:07.676Z,1.50
2022-08-02T15:28:36.351Z,1.30
2022-08-02T15:31:04.518Z,1.60
2022-08-02T15:33:34.106Z,1.20
2022-08-02T15:36:02.249Z,1.30
2022-08-02T15:38:30.470Z,1.35
2022-08-02T15:40:58.956Z,1.20
2022-08-02T15:43:28.290Z,1.20
2022-08-02T15:45:56.636Z,1.23
2022-08-02T15:48:25.021Z,1.30
2022-08-02T15:50:54.599Z,1.45
2022-08-02T15:53:22.781Z,1.40
2022-08-02T15:55:52.617Z,1.40
2022-08-02T15:58:44.208Z,1.30
2022-08-02T16:01:13.008Z,1.30
2022-08-02T16:03:41.285Z,1.30
2022-08-02T16:06:11.446Z,1.25
2022-08-02T16:08:45.451Z,1.30
2022-08-02T16:11:22.759Z,1.35
2022-08-02T16:13:59.493Z,1.50
2022-08-02T16:16:30.649Z,1.50
2022-08-02T16:18:59.383Z,1.25
2022-08-02T16:21:50.965Z,1.30
2022-08-02T16:24:19.244Z,1.27
2022-08-02T16:26:47.337Z,1.50
2022-08-02T16:29:19.035Z,1.45
2022-08-02T16:31:48.285Z,1.45
2022-08-02T16:34:19.352Z,1.50
2022-08-02T16:36:49.392Z,1.25
2022-08-02T16:39:17.584Z,1.50
2022-08-02T16:41:51.901Z,1.40
2022-08-02T16:44:27.590Z,1.20
2022-08-02T16:47:00.674Z,1.25
2022-08-02T16:50:07.259Z,1.40
2022-08-02T16:52:22.407Z,1.50
2022-08-02T16:54:50.619Z,1.48
2022-08-02T16:57:19.818Z,1.50
2022-08-02T16:59:58.108Z,1.30
2022-08-02T17:02:26.853Z,1.40
2022-08-02T17:04:56.645Z,1.20
2022-08-02T17:08:07.695Z,1.40
2022-08-02T17:10:15.314Z,1.20
2022-08-02T17:12:51.319Z,1.50
2022-08-02T17:16:08.034Z,1.35
2022-08-02T17:18:09.539Z,1.30
2022-08-02T17:20:38.028Z,1.30
2022-08-02T17:23:16.153Z,1.25
2022-08-02T17:25:45.081Z,1.35
2022-08-02T17:28:21.203Z,1.58
2022-08-02T17:31:00.570Z,1.50
2022-08-02T17:33:29.348Z,1.23
2022-08-02T17:36:00.308Z,1.30
2022-08-02T17:38:31.798Z,1.52
2022-08-02T17:41:00.838Z,1.40
2022-08-02T17:43:32.617Z,1.40
2022-08-02T17:46:02.598Z,1.55
2022-08-02T17:48:54.919Z,1.50
2022-08-02T17:52:15.466Z,1.60
2022-08-02T17:54:14.562Z,1.50
2022-08-02T17:56:47.517Z,1.58
2022-08-02T17:59:22.397Z,1.77
2022-08-02T18:02:03.741Z,2.00
2022-08-02T18:04:33.474Z,1.50
2022-08-02T18:07:04.133Z,1.65
2022-08-02T18:09:34.592Z,1.70
2022-08-02T18:12:04.795Z,1.40
2022-08-02T18:14:33.311Z,1.38
2022-08-02T18:17:03.557Z,1.80
2022-08-02T18:19:42.205Z,1.63
2022-08-02T18:22:13.125Z,1.58
2022-08-02T18:24:44.918Z,1.60
2022-08-02T18:27:13.285Z,1.50
2022-08-02T18:29:43.075Z,1.58
2022-08-02T18:32:16.015Z,1.85
2022-08-02T18:35:04.518Z,2.38
2022-08-02T18:37:43.683Z,1.90
2022-08-02T18:40:16.820Z,2.47
2022-08-02T18:42:44.999Z,2.30
2022-08-02T18:45:19.842Z,2.42
2022-08-02T18:47:50.803Z,1.95
2022-08-02T18:50:19.948Z,1.90
2022-08-02T18:52:49.338Z,2.20
2022-08-02T18:55:59.826Z,2.83
2022-08-02T18:58:19.368Z,2.10
2022-08-02T19:00:51.454Z,1.90
2022-08-02T19:03:22.319Z,1.75
2022-08-02T19:05:52.132Z,1.90
2022-08-02T19:08:25.647Z,1.60
2022-08-02T19:10:57.726Z,1.70
2022-08-02T19:13:30.815Z,2.17
2022-08-02T19:15:59.273Z,2.08
2022-08-02T19:18:30.178Z,1.90
2022-08-02T19:21:05.746Z,1.58
2022-08-02T19:23:37.476Z,1.85
2022-08-02T19:26:24.421Z,1.80
2022-08-02T19:28:54.245Z,2.13
2022-08-02T19:31:22.767Z,1.80
2022-08-02T19:34:06.230Z,1.88
2022-08-02T19:36:36.105Z,2.05
2022-08-02T19:39:04.829Z,2.00
2022-08-02T19:41:43.861Z,1.98
2022-08-02T19:44:22.910Z,1.80
2022-08-02T19:46:57.281Z,1.80
2022-08-02T19:49:39.487Z,1.65
2022-08-02T19:52:21.111Z,2.40
2022-08-02T19:54:55.468Z,1.90
2022-08-02T19:57:27.170Z,1.92
2022-08-02T19:59:56.842Z,2.15
2022-08-02T20:02:26.215Z,2.30
2022-08-02T20:04:54.741Z,1.95
2022-08-02T20:07:24.723Z,1.95
2022-08-02T20:10:13.496Z,2.15
2022-08-02T20:12:55.031Z,1.85
2022-08-02T20:15:51.757Z,2.40
2022-08-02T20:18:13.095Z,2.30
2022-08-02T20:20:44.394Z,2.78
2022-08-02T20:23:32.505Z,2.53
2022-08-02T20:26:02.341Z,2.58
2022-08-02T20:28:32.220Z,2.63
2022-08-02T20:31:07.157Z,2.10
2022-08-02T20:33:55.733Z,2.30
2022-08-02T20:36:25.405Z,2.28
2022-08-02T20:38:54.459Z,2.35
2022-08-02T20:41:22.989Z,2.47
2022-08-02T20:43:53.010Z,2.08
2022-08-02T20:46:23.292Z,2.33
2022-08-02T20:48:51.497Z,2.50
2022-08-02T20:51:18.681Z,3.03
2022-08-02T20:54:02.378Z,2.60
2022-08-02T20:56:32.073Z,2.20
2022-08-02T20:59:04.050Z,4.43
2022-08-02T21:01:57.276Z,2.40
2022-08-02T21:04:26.577Z,2.60
2022-08-02T21:06:55.948Z,2.55
2022-08-02T21:09:52.797Z,2.40
2022-08-02T21:12:13.358Z,2.40
2022-08-02T21:14:43.009Z,2.67
2022-08-02T21:17:11.534Z,2.63
2022-08-02T21:19:46.810Z,3.20
2022-08-02T21:22:15.231Z,2.20
2022-08-02T21:24:43.489Z,3.15
2022-08-02T21:27:52.977Z,2.60
2022-08-02T21:30:06.568Z,2.33
2022-08-02T21:32:36.682Z,2.47
2022-08-02T21:35:05.036Z,2.63
2022-08-02T21:37:44.688Z,2.25
2022-08-02T21:40:14.056Z,1.83
2022-08-02T21:42:42.391Z,2.00
2022-08-02T21:45:16.824Z,2.40
2022-08-02T21:47:45.686Z,2.03
2022-08-02T21:50:16.351Z,2.13
2022-08-02T21:52:52.327Z,2.25
2022-08-02T21:55:24.373Z,2.33
2022-08-02T21:58:09.762Z,2.22
2022-08-02T22:00:39.572Z,2.20
2022-08-02T22:03:22.262Z,2.00
2022-08-02T22:05:51.590Z,2.10
2022-08-02T22:08:20.043Z,2.22
2022-08-02T22:11:03.426Z,2.50
2022-08-02T22:13:38.635Z,2.38
2022-08-02T22:16:18.550Z,2.40
2022-08-02T22:18:49.388Z,2.33
2022-08-02T22:21:22.818Z,2.22
2022-08-02T22:23:51.578Z,2.30
2022-08-02T22:26:21.372Z,2.35
2022-08-02T22:28:56.132Z,2.55
2022-08-02T22:31:40.874Z,2.55
2022-08-02T22:34:11.822Z,2.15
2022-08-02T22:36:58.365Z,2.70
2022-08-02T22:39:28.484Z,2.25
2022-08-02T22:42:06.323Z,2.55
2022-08-02T22:44:35.698Z,2.55
2022-08-02T22:47:14.675Z,2.30
2022-08-02T22:49:54.396Z,2.40
2022-08-02T22:52:24.734Z,2.80
2022-08-02T22:54:54.832Z,2.38
2022-08-02T22:57:30.324Z,2.53
2022-08-02T22:59:59.102Z,2.35
2022-08-02T23:02:30.095Z,2.53
2022-08-02T23:04:58.451Z,2.40
2022-08-02T23:07:26.616Z,2.20
2022-08-02T23:09:55.206Z,1.98
2022-08-02T23:12:23.879Z,2.40
2022-08-02T23:14:53.291Z,2.20
2022-08-02T23:17:39.114Z,2.42
2022-08-02T23:20:11.263Z,2.88
2022-08-02T23:22:39.518Z,2.50
2022-08-02T23:25:08.824Z,2.40
2022-08-02T23:27:38.220Z,2.38
2022-08-02T23:30:08.277Z,2.50
2022-08-02T23:32:36.535Z,2.80
2022-08-02T23:35:06.050Z,2.80
2022-08-02T23:37:59.022Z,2.70
2022-08-02T23:40:38.826Z,2.85
2022-08-02T23:43:13.679Z,2.67
2022-08-02T23:45:44.279Z,2.70
2022-08-02T23:48:12.679Z,2.60
2022-08-02T23:50:41.241Z,2.50
2022-08-02T23:53:11.713Z,2.85
2022-08-02T23:55:40.026Z,3.30
2022-08-02T23:58:09.678Z,3.60
